Time;durP1;ratioP1;P1;durP2;ratioP2;P2;SDS_P1;SDS_P2;PMS_P1;PMS_P2;Temp;Humidity;BMP_temperature;BMP_pressure;BME280_temperature;BME280_humidity;BME280_pressure;Samples;Min_cycle;Max_cycle;Signal;HPM_P1;HPM_P2
2024/01/04 00:00:44;;;;;;;5.15;1.48;;;;;;;7.93;100.00;98524.72;7398241;19;20023;-69
2024/01/04 00:03:12;;;;;;;5.65;1.30;;;;;;;7.94;100.00;98522.03;7397874;19;20427;-69
2024/01/04 00:05:47;;;;;;;3.50;1.13;;;;;;;7.94;100.00;98521.19;7396831;19;20014;-69
2024/01/04 00:08:24;;;;;;;8.43;2.00;;;;;;;7.93;100.00;98532.53;7397009;19;20086;-69
2024/01/04 00:10:53;;;;;;;6.68;1.00;;;;;;;7.93;100.00;98528.16;7396403;19;20014;-70
2024/01/04 00:13:21;;;;;;;2.92;0.90;;;;;;;7.93;100.00;98532.53;7395922;19;20031;-70
2024/01/04 00:15:49;;;;;;;5.10;1.10;;;;;;;7.92;100.00;98531.72;7397778;19;20078;-70
2024/01/04 00:18:18;;;;;;;4.18;1.02;;;;;;;7.92;100.00;98539.53;7397620;19;20423;-69
2024/01/04 00:20:46;;;;;;;6.50;1.30;;;;;;;7.92;100.00;98534.31;7395720;19;20074;-70
2024/01/04 00:23:17;;;;;;;4.60;1.25;;;;;;;7.92;100.00;98531.72;7395806;19;20076;-70
2024/01/04 00:25:46;;;;;;;2.25;0.70;;;;;;;7.94;100.00;98536.84;7396275;19;20014;-70
2024/01/04 00:28:15;;;;;;;4.32;0.90;;;;;;;7.93;100.00;98541.22;7395641;19;20010;-69
2024/01/04 00:30:43;;;;;;;4.95;1.10;;;;;;;7.93;100.00;98541.22;7397243;19;20085;-69
2024/01/04 00:33:11;;;;;;;1.90;0.80;;;;;;;7.94;100.00;98537.69;7395141;19;20494;-70
2024/01/04 00:35:40;;;;;;;4.53;1.27;;;;;;;7.95;100.00;98543.78;7397461;19;20082;-70
2024/01/04 00:38:09;;;;;;;2.75;1.13;;;;;;;7.95;100.00;98543.78;7397384;19;20070;-70
2024/01/04 00:40:40;;;;;;;3.97;0.98;;;;;;;7.95;100.00;98549.00;7395520;19;20019;-69
2024/01/04 00:43:09;;;;;;;3.05;1.00;;;;;;;7.95;100.00;98547.22;7395640;19;20080;-70
2024/01/04 00:45:38;;;;;;;2.85;0.90;;;;;;;7.95;100.00;98549.81;7397260;19;20070;-70
2024/01/04 00:48:07;;;;;;;2.78;0.63;;;;;;;7.96;100.00;98541.09;7396016;19;20523;-70
2024/01/04 00:50:35;;;;;;;3.35;1.35;;;;;;;7.96;100.00;98548.06;7394840;19;20414;-68
2024/01/04 00:53:04;;;;;;;1.60;0.80;;;;;;;7.93;100.00;98554.25;7396394;19;20031;-68
2024/01/04 00:55:32;;;;;;;3.70;0.77;;;;;;;7.94;100.00;98560.34;7396873;19;20023;-68
2024/01/04 00:58:05;;;;;;;3.33;1.00;;;;;;;7.92;100.00;98560.44;7396377;19;20506;-68
2024/01/04 01:00:33;;;;;;;3.33;0.90;;;;;;;7.92;100.00;98546.50;7395363;19;20031;-68
2024/01/04 01:03:02;;;;;;;2.67;0.77;;;;;;;7.92;100.00;98547.38;7394434;19;20018;-68
2024/01/04 01:05:30;;;;;;;2.88;1.02;;;;;;;7.92;100.00;98541.28;7396155;19;20027;-70
2024/01/04 01:08:01;;;;;;;3.90;1.05;;;;;;;7.92;100.00;98555.22;7394312;19;20533;-69
2024/01/04 01:10:31;;;;;;;3.42;0.85;;;;;;;7.91;100.00;98548.28;7396817;19;20086;-69
2024/01/04 01:13:03;;;;;;;3.10;0.90;;;;;;;7.92;100.00;98555.22;7396268;19;20017;-69
2024/01/04 01:15:31;;;;;;;1.65;0.60;;;;;;;7.91;100.00;98563.94;7394991;19;20074;-69
2024/01/04 01:18:00;;;;;;;1.67;0.50;;;;;;;7.92;100.00;98554.34;7396183;19;20015;-70
2024/01/04 01:20:28;;;;;;;2.90;1.10;;;;;;;7.92;100.00;98559.56;7394323;19;20359;-69
2024/01/04 01:22:58;;;;;;;4.18;0.95;;;;;;;7.93;100.00;98558.66;7395706;19;20031;-69
2024/01/04 01:25:27;;;;;;;3.13;1.00;;;;;;;7.93;100.00;98558.66;7393863;19;20014;-69
2024/01/04 01:27:55;;;;;;;4.97;1.10;;;;;;;7.92;100.00;98565.66;7394066;19;20078;-68
2024/01/04 01:30:29;;;;;;;5.75;1.92;;;;;;;7.91;100.00;98563.94;7394169;19;20086;-68
2024/01/04 01:32:57;;;;;;;7.03;2.83;;;;;;;7.92;100.00;98557.81;7395874;19;20021;-68
2024/01/04 01:35:25;;;;;;;7.88;1.75;;;;;;;7.92;100.00;98565.66;7395628;19;20086;-68
2024/01/04 01:37:54;;;;;;;7.85;2.88;;;;;;;7.92;100.00;98557.81;7395424;19;20023;-70
2024/01/04 01:40:23;;;;;;;15.98;4.93;;;;;;;7.91;100.00;98557.88;7395580;19;20006;-68
2024/01/04 01:42:52;;;;;;;8.13;3.05;;;;;;;7.91;100.00;98558.72;7393670;19;20070;-68
2024/01/04 01:45:21;;;;;;;18.60;5.45;;;;;;;7.88;100.00;98548.41;7393363;19;20082;-68
2024/01/04 01:47:52;;;;;;;7.15;2.10;;;;;;;7.88;100.00;98553.63;7393571;19;20075;-68
2024/01/04 01:50:23;;;;;;;12.38;3.63;;;;;;;7.86;100.00;98560.72;7393973;19;20031;-68
2024/01/04 01:52:54;;;;;;;8.30;3.00;;;;;;;7.85;100.00;98558.16;7393764;19;20022;-68
2024/01/04 01:55:22;;;;;;;23.13;7.50;;;;;;;7.83;100.00;98558.22;7393827;19;20027;-68
2024/01/04 01:57:52;;;;;;;9.77;3.90;;;;;;;7.83;100.00;98556.47;7393329;19;20094;-68
2024/01/04 02:00:22;;;;;;;6.93;2.75;;;;;;;7.83;100.00;98556.47;7402306;19;20070;-68
2024/01/04 02:02:53;;;;;;;10.57;3.58;;;;;;;7.82;100.00;98557.38;7401769;19;20010;-68
2024/01/04 02:05:21;;;;;;;10.70;4.10;;;;;;;7.83;100.00;98566.06;7402224;19;20073;-68
2024/01/04 02:07:50;;;;;;;5.47;1.77;;;;;;;7.82;100.00;98565.22;7399495;19;20067;-68
2024/01/04 02:10:18;;;;;;;3.72;1.65;;;;;;;7.81;100.00;98563.50;7399712;19;20082;-68
2024/01/04 02:12:47;;;;;;;3.70;1.60;;;;;;;7.82;100.00;98566.97;7399711;19;20006;-69
2024/01/04 02:15:15;;;;;;;4.45;1.20;;;;;;;7.81;100.00;98562.69;7398907;19;20424;-68
2024/01/04 02:17:44;;;;;;;3.42;1.95;;;;;;;7.81;100.00;98565.28;7399368;19;20077;-68
2024/01/04 02:20:15;;;;;;;4.20;1.55;;;;;;;7.80;100.00;98560.97;7400163;19;20023;-68
2024/01/04 02:22:48;;;;;;;4.28;1.20;;;;;;;7.79;100.00;98559.28;7399257;19;20437;-68
2024/01/04 02:25:16;;;;;;;4.43;0.90;;;;;;;7.81;100.00;98567.91;7405213;19;20034;-68
2024/01/04 02:27:45;;;;;;;3.55;0.90;;;;;;;7.81;100.00;98560.06;7402002;19;20086;-68
2024/01/04 02:30:14;;;;;;;2.33;0.73;;;;;;;7.82;100.00;98566.97;7398826;19;20022;-67
2024/01/04 02:32:42;;;;;;;3.22;0.88;;;;;;;7.82;100.00;98569.56;7401371;19;20011;-68
2024/01/04 02:35:11;;;;;;;3.55;0.75;;;;;;;7.85;100.00;98568.59;7401237;19;20499;-68
2024/01/04 02:37:39;;;;;;;2.42;0.60;;;;;;;7.83;100.00;98563.44;7401490;19;20074;-68
2024/01/04 02:40:12;;;;;;;2.42;0.88;;;;;;;7.84;100.00;98562.53;7398364;19;20423;-67
2024/01/04 02:42:40;;;;;;;1.30;0.50;;;;;;;7.86;100.00;98565.06;7400762;19;20431;-68
2024/01/04 02:45:09;;;;;;;1.77;0.40;;;;;;;7.86;100.00;98571.16;7398626;19;20082;-68
2024/01/04 02:47:38;;;;;;;1.48;0.50;;;;;;;7.86;100.00;98565.94;7401143;19;20078;-68
2024/01/04 02:50:07;;;;;;;1.50;0.73;;;;;;;7.87;100.00;98564.97;7397865;19;20351;-68
2024/01/04 02:52:36;;;;;;;2.83;0.75;;;;;;;7.83;100.00;98560.81;7400862;19;20038;-68
2024/01/04 02:55:04;;;;;;;1.52;0.63;;;;;;;7.87;100.00;98564.16;7398315;19;20070;-68
2024/01/04 02:57:35;;;;;;;2.30;0.65;;;;;;;7.86;100.00;98563.31;7397839;19;20078;-68
2024/01/04 03:00:05;;;;;;;1.48;0.43;;;;;;;7.84;100.00;98562.53;7401214;19;20078;-68
2024/01/04 03:02:34;;;;;;;0.75;0.50;;;;;;;7.84;100.00;98562.53;7400345;19;20395;-67
2024/01/04 03:05:02;;;;;;;1.85;0.70;;;;;;;7.83;100.00;98559.09;7400192;19;20011;-68
2024/01/04 03:07:31;;;;;;;1.23;0.60;;;;;;;7.84;100.00;98565.13;7397482;19;20500;-67
2024/01/04 03:10:01;;;;;;;2.08;0.73;;;;;;;7.87;100.00;98564.16;7395113;19;20018;-68
2024/01/04 03:12:29;;;;;;;2.08;0.70;;;;;;;7.86;100.00;98562.44;7400251;19;20011;-68
2024/01/04 03:15:01;;;;;;;1.98;0.63;;;;;;;7.86;100.00;98558.09;7397817;19;20058;-69
2024/01/04 03:17:29;;;;;;;1.23;0.50;;;;;;;7.88;100.00;98569.28;7402168;19;20017;-66
2024/01/04 03:19:58;;;;;;;1.05;0.52;;;;;;;7.89;100.00;98570.16;7401164;19;20014;-69
2024/01/04 03:22:26;;;;;;;1.63;0.40;;;;;;;7.88;100.00;98569.28;7402649;19;20015;-67
2024/01/04 03:24:55;;;;;;;1.17;0.50;;;;;;;7.90;100.00;98564.00;7396967;19;20065;-67
2024/01/04 03:27:23;;;;;;;1.92;0.60;;;;;;;7.92;100.00;98570.88;7399851;19;20094;-68
2024/01/04 03:29:54;;;;;;;1.55;0.75;;;;;;;7.95;100.00;98569.88;7397263;19;20082;-68
2024/01/04 03:32:25;;;;;;;1.77;0.63;;;;;;;7.99;100.00;98574.03;7397372;19;20038;-68
2024/01/04 03:34:54;;;;;;;3.03;0.63;;;;;;;8.01;100.00;98569.56;7396915;19;20364;-68
2024/01/04 03:37:22;;;;;;;3.03;0.68;;;;;;;8.04;100.00;98571.19;7396697;19;20510;-68
2024/01/04 03:39:51;;;;;;;4.32;0.70;;;;;;;8.06;100.00;98574.59;7399312;19;20014;-67
2024/01/04 03:42:19;;;;;;;1.95;0.50;;;;;;;8.05;100.00;98576.38;7398953;19;20079;-67
2024/01/04 03:44:48;;;;;;;1.15;0.40;;;;;;;8.04;100.00;98573.81;7396727;19;20394;-67
2024/01/04 03:47:16;;;;;;;1.98;0.52;;;;;;;8.04;100.00;98576.41;7396978;19;20028;-67
2024/01/04 03:49:47;;;;;;;0.60;0.47;;;;;;;8.04;99.60;98576.41;7398161;19;20074;-67
2024/01/04 03:52:15;;;;;;;1.45;0.57;;;;;;;8.04;100.00;98579.91;7396486;19;20417;-67
2024/01/04 03:54:44;;;;;;;1.58;0.70;;;;;;;8.02;100.00;98576.50;7396682;19;20031;-67
2024/01/04 03:57:12;;;;;;;1.50;0.40;;;;;;;8.02;100.00;98586.94;7398857;19;20011;-67
2024/01/04 03:59:41;;;;;;;0.57;0.38;;;;;;;8.02;99.00;98609.63;7396694;19;20082;-67
2024/01/04 04:02:09;;;;;;;2.08;0.50;;;;;;;8.01;99.48;98594.84;7398243;19;20010;-67
2024/01/04 04:04:37;;;;;;;1.08;0.40;;;;;;;7.97;99.86;98600.22;7396238;19;20425;-67
2024/01/04 04:07:10;;;;;;;0.68;0.30;;;;;;;7.94;100.00;98592.53;7396327;19;20091;-68
2024/01/04 04:09:38;;;;;;;2.38;0.38;;;;;;;7.90;99.40;98596.19;7395709;19;20023;-67
2024/01/04 04:12:08;;;;;;;1.63;0.50;;;;;;;7.82;100.00;98590.47;7396157;19;20018;-67
2024/01/04 04:14:36;;;;;;;0.90;0.60;;;;;;;7.77;99.40;98601.13;7395997;19;20514;-67
2024/01/04 04:17:05;;;;;;;0.93;0.40;;;;;;;7.72;100.00;98597.88;7396040;19;20078;-68
2024/01/04 04:19:34;;;;;;;1.67;0.30;;;;;;;7.70;100.00;98604.06;7397618;19;20485;-67
2024/01/04 04:22:02;;;;;;;0.80;0.50;;;;;;;7.68;100.00;98608.50;7397155;19;20074;-67
2024/01/04 04:24:33;;;;;;;1.35;0.40;;;;;;;7.62;100.00;98609.59;7395918;19;20074;-66
2024/01/04 04:27:01;;;;;;;0.47;0.30;;;;;;;7.63;100.00;98617.41;7397580;19;20011;-66
2024/01/04 04:29:30;;;;;;;0.45;0.30;;;;;;;7.62;100.00;98610.47;7395420;19;20415;-67
2024/01/04 04:31:58;;;;;;;1.23;0.35;;;;;;;7.61;100.00;98619.22;7397680;19;20018;-67
2024/01/04 04:34:30;;;;;;;1.15;0.38;;;;;;;7.58;100.00;98616.75;7395588;19;20086;-67
2024/01/04 04:36:58;;;;;;;1.88;0.35;;;;;;;7.54;100.00;98623.00;7397899;19;20014;-68
2024/01/04 04:39:26;;;;;;;0.68;0.38;;;;;;;7.48;100.00;98621.50;7397434;19;20107;-68
2024/01/04 04:41:58;;;;;;;0.50;0.40;;;;;;;7.45;100.00;98639.06;7395662;19;20077;-68
2024/01/04 04:44:26;;;;;;;3.15;1.40;;;;;;;7.41;100.00;98640.09;7395439;19;20022;-68
2024/01/04 04:46:56;;;;;;;0.30;0.30;;;;;;;7.39;100.00;98631.50;7395245;19;20078;-68
2024/01/04 04:49:26;;;;;;;0.75;0.40;;;;;;;7.36;100.00;98629.84;7395218;19;20034;-68
2024/01/04 04:51:54;;;;;;;1.58;0.45;;;;;;;7.33;100.00;98628.22;7397010;19;20011;-69
2024/01/04 04:54:24;;;;;;;1.02;0.38;;;;;;;7.31;100.00;98637.03;7395014;19;20014;-68
2024/01/04 04:56:53;;;;;;;1.30;0.43;;;;;;;7.29;100.00;98639.72;7394809;19;20502;-68
2024/01/04 04:59:24;;;;;;;2.90;0.80;;;;;;;7.27;100.00;98638.09;7394857;19;20018;-68
2024/01/04 05:01:52;;;;;;;0.65;0.40;;;;;;;7.26;100.00;98641.59;7396722;19;20015;-68
2024/01/04 05:04:21;;;;;;;1.38;0.70;;;;;;;7.25;100.00;98647.72;7394318;19;20372;-68
2024/01/04 05:06:50;;;;;;;1.50;0.50;;;;;;;7.22;100.00;98661.75;7396261;19;20031;-68
2024/01/04 05:09:18;;;;;;;0.40;0.40;;;;;;;7.19;100.00;98654.06;7395166;19;20011;-68
2024/01/04 05:11:47;;;;;;;0.77;0.60;;;;;;;7.16;100.00;98665.44;7396221;19;20022;-68
2024/01/04 05:14:15;;;;;;;4.32;0.50;;;;;;;7.12;100.00;98676.06;7394795;19;20477;-68
2024/01/04 05:16:46;;;;;;;1.08;0.40;;;;;;;7.10;100.00;98662.22;7396098;19;20018;-68
2024/01/04 05:19:15;;;;;;;1.50;0.52;;;;;;;7.09;100.00;98669.22;7395386;19;20010;-68
2024/01/04 05:21:43;;;;;;;3.35;0.70;;;;;;;7.08;100.00;98675.34;7394201;19;20038;-68
2024/01/04 05:24:12;;;;;;;0.63;0.45;;;;;;;7.06;100.00;98674.53;7394445;19;20011;-67
2024/01/04 05:26:40;;;;;;;1.17;0.50;;;;;;;7.06;100.00;98695.41;7395334;19;20006;-68
2024/01/04 05:29:09;;;;;;;0.80;0.40;;;;;;;7.05;100.00;98695.47;7395721;19;20038;-68
2024/01/04 05:31:38;;;;;;;0.40;0.38;;;;;;;7.03;100.00;98681.63;7393644;19;20014;-68
2024/01/04 05:34:09;;;;;;;1.30;0.40;;;;;;;7.02;100.00;98686.00;7391171;19;20038;-68
2024/01/04 05:36:37;;;;;;;0.85;0.43;;;;;;;7.00;100.00;98696.50;7394965;19;20510;-68
2024/01/04 05:39:06;;;;;;;1.88;0.50;;;;;;;7.00;100.00;98700.84;7395490;19;20011;-68
2024/01/04 05:41:34;;;;;;;2.40;0.40;;;;;;;7.00;100.00;98706.94;7395548;19;20018;-68
2024/01/04 05:44:03;;;;;;;0.55;0.43;;;;;;;6.99;100.00;98709.63;7393779;19;20010;-68
2024/01/04 05:46:33;;;;;;;0.50;0.40;;;;;;;6.99;100.00;98704.41;7393053;19;20014;-68
2024/01/04 05:49:02;;;;;;;1.00;0.40;;;;;;;7.00;100.00;98713.91;7395477;19;20014;-68
2024/01/04 05:51:33;;;;;;;0.47;0.40;;;;;;;6.97;100.00;98708.81;7392872;19;20035;-68
2024/01/04 05:54:02;;;;;;;0.40;0.40;;;;;;;7.01;100.00;98713.00;7392723;19;20494;-68
2024/01/04 05:56:31;;;;;;;0.82;0.32;;;;;;;6.98;100.00;98713.97;7394712;19;20014;-69
2024/01/04 05:58:59;;;;;;;1.25;0.70;;;;;;;6.98;100.00;98723.56;7396290;19;20029;-69
2024/01/04 06:01:28;;;;;;;1.92;0.50;;;;;;;7.00;100.00;98745.19;7393334;19;20010;-68
2024/01/04 06:03:58;;;;;;;0.68;0.60;;;;;;;7.01;100.00;98746.88;7392506;19;20010;-67
2024/01/04 06:06:35;;;;;;;0.47;0.40;;;;;;;7.00;100.00;98743.44;7392615;19;20010;-68
2024/01/04 06:09:10;;;;;;;0.75;0.57;;;;;;;7.01;100.00;98754.72;7393161;19;20031;-68
2024/01/04 06:11:39;;;;;;;1.55;0.63;;;;;;;6.98;100.00;98755.69;7391738;19;20131;-68
2024/01/04 06:14:07;;;;;;;1.30;0.70;;;;;;;6.95;100.00;98750.59;7391781;19;20446;-67
2024/01/04 06:16:36;;;;;;;1.70;1.08;;;;;;;6.92;100.00;98763.75;7394100;19;20010;-68
2024/01/04 06:19:04;;;;;;;1.25;0.80;;;;;;;6.88;100.00;98764.78;7392396;19;20031;-67
2024/01/04 06:21:36;;;;;;;1.45;0.68;;;;;;;6.84;100.00;98777.06;7392012;19;20015;-67
2024/01/04 06:24:05;;;;;;;0.82;0.68;;;;;;;6.82;100.00;98775.44;7392544;19;20014;-68
2024/01/04 06:26:33;;;;;;;0.68;0.60;;;;;;;6.80;100.00;98775.50;7394289;19;20028;-67
2024/01/04 06:29:01;;;;;;;0.95;0.60;;;;;;;6.79;100.00;98773.78;7394382;19;20428;-67
2024/01/04 06:31:30;;;;;;;1.13;0.65;;;;;;;6.80;100.00;98785.91;7392340;19;20032;-67
2024/01/04 06:33:58;;;;;;;1.90;0.65;;;;;;;6.80;100.00;98780.72;7391879;19;20027;-68
2024/01/04 06:36:27;;;;;;;1.02;0.82;;;;;;;6.80;100.00;98782.47;7391835;19;20018;-67
2024/01/04 06:38:58;;;;;;;2.90;0.70;;;;;;;6.79;100.00;98785.97;7391784;19;20018;-68
2024/01/04 06:41:29;;;;;;;1.35;0.80;;;;;;;6.80;100.00;98792.91;7391997;19;20018;-67
2024/01/04 06:43:58;;;;;;;2.22;0.90;;;;;;;6.81;100.00;98795.44;7391241;19;20473;-68
2024/01/04 06:46:26;;;;;;;2.00;0.60;;;;;;;6.83;100.00;98792.78;7400678;19;20498;-68
2024/01/04 06:48:55;;;;;;;0.90;0.85;;;;;;;6.84;100.00;98807.50;7401162;19;20085;-69
2024/01/04 06:51:23;;;;;;;2.03;0.80;;;;;;;6.85;100.00;98811.81;7399303;19;20028;-68
2024/01/04 06:53:52;;;;;;;3.95;1.13;;;;;;;6.85;100.00;98815.25;7398551;19;20035;-68
2024/01/04 06:56:23;;;;;;;1.13;0.90;;;;;;;6.85;100.00;98817.88;7401242;19;20035;-68
2024/01/04 06:58:52;;;;;;;1.10;1.00;;;;;;;6.85;100.00;98806.59;7399452;19;20070;-68
2024/01/04 07:01:21;;;;;;;1.85;0.95;;;;;;;6.82;100.00;98823.22;7401330;19;20014;-68
2024/01/04 07:03:50;;;;;;;2.30;1.20;;;;;;;6.84;100.00;98810.13;7397447;19;20014;-67
2024/01/04 07:06:18;;;;;;;1.33;0.90;;;;;;;6.84;100.00;98824.00;7400280;19;20355;-67
2024/01/04 07:08:48;;;;;;;0.85;0.80;;;;;;;6.84;100.00;98825.75;7397987;19;20022;-68
2024/01/04 07:11:16;;;;;;;1.23;0.88;;;;;;;6.82;100.00;98820.59;7397407;19;20011;-68
2024/01/04 07:13:47;;;;;;;1.45;1.20;;;;;;;6.77;100.00;98834.69;7398634;19;20010;-68
2024/01/04 07:16:16;;;;;;;3.35;1.80;;;;;;;6.74;100.00;98835.66;7397715;19;20032;-68
2024/01/04 07:18:44;;;;;;;5.70;2.17;;;;;;;6.65;100.00;98842.06;7400133;19;20006;-68
2024/01/04 07:21:13;;;;;;;1.70;1.52;;;;;;;6.54;100.00;98846.81;7396432;19;20031;-69
2024/01/04 07:23:41;;;;;;;2.95;1.70;;;;;;;6.47;100.00;98855.72;7398480;19;20014;-69
2024/01/04 07:26:10;;;;;;;3.15;1.70;;;;;;;6.40;100.00;98843.84;7399916;19;20015;-69
2024/01/04 07:28:38;;;;;;;3.60;2.22;;;;;;;6.32;100.00;98860.59;7396724;19;20010;-68
2024/01/04 07:31:11;;;;;;;2.45;2.05;;;;;;;6.24;100.00;98867.78;7396912;19;20015;-69
2024/01/04 07:33:39;;;;;;;2.85;2.60;;;;;;;6.19;100.00;98844.53;7397211;19;20035;-68
2024/01/04 07:36:08;;;;;;;4.85;2.60;;;;;;;6.13;100.00;98877.72;7398965;19;20345;-69
2024/01/04 07:38:37;;;;;;;2.70;2.05;;;;;;;6.07;100.00;98878.78;7399222;19;20027;-68
2024/01/04 07:41:06;;;;;;;2.42;1.30;;;;;;;6.02;100.00;98876.34;7396791;19;20031;-69
2024/01/04 07:43:34;;;;;;;3.90;1.80;;;;;;;5.97;100.00;98893.00;7397918;19;20019;-68
2024/01/04 07:46:03;;;;;;;1.52;1.15;;;;;;;5.93;100.00;98886.19;7398613;19;20027;-67
2024/01/04 07:48:34;;;;;;;3.22;1.90;;;;;;;5.88;100.00;98894.13;7397222;19;20018;-68
2024/01/04 07:51:02;;;;;;;2.20;1.50;;;;;;;5.83;100.00;98896.03;7397970;19;20014;-67
2024/01/04 07:53:30;;;;;;;1.95;1.40;;;;;;;5.79;100.00;98910.06;7397632;19;20019;-67
2024/01/04 07:55:59;;;;;;;2.53;1.35;;;;;;;5.75;100.00;98906.69;7396549;19;20032;-68
2024/01/04 07:58:27;;;;;;;1.70;1.10;;;;;;;5.68;100.00;98906.00;7398406;19;20014;-67
2024/01/04 08:00:56;;;;;;;1.00;0.90;;;;;;;5.60;100.00;98918.41;7398284;19;20031;-68
2024/01/04 08:03:24;;;;;;;0.50;0.50;;;;;;;5.48;100.00;98945.63;7395203;19;20505;-68
2024/01/04 08:05:55;;;;;;;1.05;0.90;;;;;;;5.36;100.00;98927.81;7396288;19;20018;-68
2024/01/04 08:08:24;;;;;;;1.75;1.05;;;;;;;5.30;100.00;98941.00;7396288;19;20031;-68
2024/01/04 08:10:52;;;;;;;1.58;0.95;;;;;;;5.19;100.00;98959.50;7395375;19;20510;-67
2024/01/04 08:13:21;;;;;;;1.65;0.70;;;;;;;5.10;100.00;98968.41;7395739;19;20018;-67
2024/01/04 08:15:50;;;;;;;2.10;1.10;;;;;;;5.05;100.00;98950.34;7395514;19;20014;-67
2024/01/04 08:18:18;;;;;;;2.58;1.08;;;;;;;4.97;100.00;98944.50;7397913;19;20026;-67
2024/01/04 08:20:47;;;;;;;1.77;1.08;;;;;;;4.92;100.00;98976.72;7394997;19;20015;-67
2024/01/04 08:23:18;;;;;;;1.17;0.80;;;;;;;4.84;100.00;98963.91;7395816;19;20014;-67
2024/01/04 08:25:46;;;;;;;0.85;0.68;;;;;;;4.80;100.00;98960.56;7396001;19;20419;-68
2024/01/04 08:28:15;;;;;;;1.20;0.80;;;;;;;4.75;100.00;98967.59;7395860;19;20015;-68
2024/01/04 08:30:44;;;;;;;0.90;0.65;;;;;;;4.72;100.00;98972.91;7395062;19;20010;-68
2024/01/04 08:33:13;;;;;;;1.63;1.17;;;;;;;4.70;100.00;98972.94;7395607;19;20037;-68
2024/01/04 08:35:42;;;;;;;4.68;2.17;;;;;;;4.69;100.00;99007.59;7398034;19;20018;-68
2024/01/04 08:38:10;;;;;;;6.50;3.50;;;;;;;4.68;100.00;98979.06;7395726;19;20035;-68
2024/01/04 08:40:43;;;;;;;9.07;3.47;;;;;;;4.70;100.00;98998.06;7397257;19;20115;-67
2024/01/04 08:43:13;;;;;;;8.57;4.57;;;;;;;4.73;100.00;98987.59;7396164;19;20393;-67
2024/01/04 08:45:41;;;;;;;6.68;3.63;;;;;;;4.76;100.00;98989.25;7395262;19;20074;-68
2024/01/04 08:48:10;;;;;;;9.07;4.00;;;;;;;4.76;100.00;98982.31;7394744;19;20446;-68
2024/01/04 08:50:45;;;;;;;6.85;3.95;;;;;;;4.75;100.00;99000.53;7397187;19;20025;-68
2024/01/04 08:53:20;;;;;;;6.32;2.85;;;;;;;4.73;100.00;99001.44;7395148;19;20103;-68
2024/01/04 08:55:51;;;;;;;3.40;1.67;;;;;;;4.70;100.00;99009.31;7395147;19;20010;-67
2024/01/04 08:58:26;;;;;;;4.03;2.08;;;;;;;4.67;100.00;99003.34;7394811;19;20066;-67
2024/01/04 09:00:55;;;;;;;2.67;1.48;;;;;;;4.64;100.00;99039.75;7394971;19;20017;-67
2024/01/04 09:03:31;;;;;;;1.30;1.05;;;;;;;4.61;100.00;99013.88;7396094;19;20021;-68
2024/01/04 09:05:59;;;;;;;1.73;1.38;;;;;;;4.57;100.00;99033.88;7396491;19;20023;-69
2024/01/04 09:08:29;;;;;;;3.40;1.10;;;;;;;4.52;100.00;99027.94;7394220;19;20499;-68
2024/01/04 09:11:00;;;;;;;1.40;0.90;;;;;;;4.46;100.00;99062.72;7394036;19;20380;-68
2024/01/04 09:13:29;;;;;;;1.42;0.90;;;;;;;4.36;98.80;99098.44;7394272;19;20485;-68
2024/01/04 09:15:58;;;;;;;1.30;0.77;;;;;;;4.34;100.00;99056.06;7394123;19;20007;-68
2024/01/04 09:18:26;;;;;;;2.88;0.88;;;;;;;4.33;100.00;99056.94;7394532;19;20025;-68
2024/01/04 09:20:54;;;;;;;1.95;0.90;;;;;;;4.30;100.00;99054.44;7394825;19;20412;-68
2024/01/04 09:23:23;;;;;;;1.20;0.88;;;;;;;4.29;100.00;99076.09;7394987;19;20081;-68
2024/01/04 09:25:51;;;;;;;3.10;0.80;;;;;;;4.26;99.65;99072.69;7395616;19;20031;-68
2024/01/04 09:28:25;;;;;;;1.80;0.80;;;;;;;4.22;100.00;99074.50;7395238;19;20371;-68
2024/01/04 09:30:53;;;;;;;2.93;1.10;;;;;;;4.21;100.00;99057.25;7395614;19;20027;-68
2024/01/04 09:33:24;;;;;;;3.25;1.00;;;;;;;4.22;100.00;99072.78;7394831;19;20018;-68
2024/01/04 09:35:52;;;;;;;2.53;1.08;;;;;;;4.22;100.00;99084.88;7394150;19;20022;-68
2024/01/04 09:38:21;;;;;;;1.88;1.00;;;;;;;4.21;100.00;99068.47;7395191;19;20007;-68
2024/01/04 09:40:53;;;;;;;2.13;1.00;;;;;;;4.20;100.00;99077.13;7395032;19;20027;-68
2024/01/04 09:43:28;;;;;;;1.77;1.00;;;;;;;4.20;100.00;99091.88;7394164;19;20474;-68
2024/01/04 09:45:57;;;;;;;1.60;1.30;;;;;;;4.20;100.00;99110.03;7394994;19;20025;-67
2024/01/04 09:48:28;;;;;;;3.28;1.10;;;;;;;4.18;100.00;99104.91;7394875;19;20010;-67
2024/01/04 09:50:57;;;;;;;3.10;1.48;;;;;;;4.18;100.00;99111.81;7393742;19;20015;-68
2024/01/04 09:53:26;;;;;;;1.60;1.02;;;;;;;4.17;100.00;99099.72;7393030;19;20019;-67
2024/01/04 09:55:55;;;;;;;3.10;1.10;;;;;;;4.15;100.00;99102.34;7395035;19;20031;-67
2024/01/04 09:58:26;;;;;;;1.35;1.08;;;;;;;4.16;100.00;99109.25;7393207;19;20506;-68
2024/01/04 10:00:55;;;;;;;3.13;1.33;;;;;;;4.15;100.00;99127.47;7394555;19;20496;-67
2024/01/04 10:03:25;;;;;;;1.10;0.90;;;;;;;4.13;100.00;99105.88;7394274;19;20078;-67
2024/01/04 10:05:54;;;;;;;0.88;0.70;;;;;;;4.07;100.00;99130.22;7394836;19;20011;-68
2024/01/04 10:08:29;;;;;;;1.55;0.88;;;;;;;3.97;99.21;99150.31;7395056;19;20035;-67
2024/01/04 10:11:03;;;;;;;1.15;1.00;;;;;;;3.92;100.00;99129.63;7394658;19;20011;-68
2024/01/04 10:13:35;;;;;;;2.05;1.42;;;;;;;3.84;100.00;99159.22;7392736;19;20011;-67
2024/01/04 10:16:05;;;;;;;1.40;0.70;;;;;;;3.75;100.00;99142.97;7394132;19;20073;-67
2024/01/04 10:18:35;;;;;;;0.88;0.70;;;;;;;3.68;100.00;99150.91;7392713;19;20014;-67
2024/01/04 10:21:05;;;;;;;0.85;0.77;;;;;;;3.62;100.00;99171.75;7398782;19;20486;-67
2024/01/04 10:23:33;;;;;;;1.42;0.60;;;;;;;3.57;100.00;99164.91;7398061;19;20034;-68
2024/01/04 10:26:10;;;;;;;0.93;0.70;;;;;;;3.54;100.00;99164.13;7398437;19;20079;-67
2024/01/04 10:28:41;;;;;;;1.58;0.75;;;;;;;3.51;100.00;99200.47;7402066;19;20011;-67
2024/01/04 10:31:11;;;;;;;1.90;0.70;;;;;;;3.48;100.00;99175.44;7398920;19;20027;-67
2024/01/04 10:33:42;;;;;;;2.10;0.90;;;;;;;3.49;100.00;99165.91;7397970;19;20509;-68
2024/01/04 10:36:11;;;;;;;0.88;0.75;;;;;;;3.44;100.00;99210.09;7400955;19;20513;-68
2024/01/04 10:38:40;;;;;;;0.68;0.65;;;;;;;3.46;100.00;99174.59;7400871;19;20014;-68
2024/01/04 10:41:09;;;;;;;0.85;0.68;;;;;;;3.43;100.00;99172.94;7397928;19;20014;-69
2024/01/04 10:43:39;;;;;;;0.80;0.80;;;;;;;3.42;100.00;99194.56;7397881;19;20014;-69
2024/01/04 10:46:10;;;;;;;1.17;0.80;;;;;;;3.40;100.00;99173.00;7398111;19;20019;-69
2024/01/04 10:48:39;;;;;;;0.85;0.80;;;;;;;3.39;100.00;99188.59;7398213;19;20014;-73
2024/01/04 10:51:09;;;;;;;0.50;0.50;;;;;;;3.38;100.00;99189.47;7400391;19;20011;-68
2024/01/04 10:53:38;;;;;;;1.50;0.60;;;;;;;3.37;99.42;99224.03;7399901;19;20010;-68
2024/01/04 10:56:08;;;;;;;0.68;0.68;;;;;;;3.36;99.99;99219.72;7400548;19;20473;-68
2024/01/04 10:58:37;;;;;;;1.67;0.70;;;;;;;3.35;96.38;99205.94;7400281;19;20477;-69
2024/01/04 11:01:06;;;;;;;0.60;0.60;;;;;;;3.39;99.71;99210.16;7397961;19;20010;-69
2024/01/04 11:03:41;;;;;;;0.75;0.70;;;;;;;3.42;99.34;99212.72;7397553;19;20027;-70
2024/01/04 11:06:09;;;;;;;0.95;0.80;;;;;;;3.43;98.84;99209.22;7400021;19;20011;-69
2024/01/04 11:08:41;;;;;;;1.25;1.00;;;;;;;3.47;100.00;99217.81;7399659;19;20010;-69
2024/01/04 11:11:12;;;;;;;1.27;0.80;;;;;;;3.47;96.63;99209.19;7400941;19;20036;-69
2024/01/04 11:13:41;;;;;;;0.90;0.90;;;;;;;3.45;96.10;99232.56;7398724;19;20103;-69
2024/01/04 11:16:19;;;;;;;5.80;2.83;;;;;;;3.46;98.91;99204.88;7399670;19;20359;-70
2024/01/04 11:19:01;;;;;;;1.70;1.30;;;;;;;3.42;95.37;99222.22;7399809;19;20014;-69
2024/01/04 11:21:45;;;;;;;0.70;0.68;;;;;;;3.40;96.40;99205.84;7399878;19;20028;-68
2024/01/04 11:24:29;;;;;;;0.82;0.80;;;;;;;3.40;97.80;99226.59;7398205;19;20024;-70
2024/01/04 11:27:04;;;;;;;0.77;0.77;;;;;;;3.38;96.32;99221.41;7397321;19;20011;-69
2024/01/04 11:29:33;;;;;;;1.90;1.10;;;;;;;3.40;97.91;99260.31;7397244;19;20015;-69
2024/01/04 11:32:02;;;;;;;0.80;0.80;;;;;;;3.40;96.73;99239.56;7394798;19;20007;-69
2024/01/04 11:34:33;;;;;;;1.10;0.80;;;;;;;3.38;97.15;99239.56;7397553;19;20478;-69
2024/01/04 11:37:12;;;;;;;1.48;0.90;;;;;;;3.38;95.47;99257.72;7400020;19;20019;-70
2024/01/04 11:40:03;;;;;;;1.27;1.00;;;;;;;3.38;96.37;99247.34;7396481;19;20474;-69
2024/01/04 11:42:36;;;;;;;1.25;0.95;;;;;;;3.38;95.35;99273.28;7397017;19;20019;-69
2024/01/04 11:45:07;;;;;;;1.30;1.00;;;;;;;3.36;94.74;99256.03;7396601;19;20010;-67